Time;durP1;ratioP1;P1;durP2;ratioP2;P2;SDS_P1;SDS_P2;PMS_P1;PMS_P2;Temp;Humidity;BMP_temperature;BMP_pressure;BME280_temperature;BME280_humidity;BME280_pressure;Samples;Min_cycle;Max_cycle;Signal;HPM_P1;HPM_P2
2022/02/27 00:03:08;;;;;;;7.37;5.30;;;5.30;32.50;;;;;;10406769;28;20236;-76
2022/02/27 00:08:12;;;;;;;7.20;5.33;;;5.20;32.60;;;;;;10406455;28;20248;-76
2022/02/27 00:13:15;;;;;;;8.83;6.20;;;5.20;32.70;;;;;;10406942;28;20237;-75
2022/02/27 00:18:19;;;;;;;6.90;5.37;;;5.20;32.80;;;;;;10406195;28;20239;-76
2022/02/27 00:23:22;;;;;;;8.70;6.27;;;5.10;32.70;;;;;;10406851;28;20720;-75
2022/02/27 00:28:26;;;;;;;11.50;6.97;;;5.10;32.60;;;;;;10406409;28;20236;-76
2022/02/27 00:33:30;;;;;;;9.93;7.03;;;5.10;32.60;;;;;;10406410;28;20259;-76
2022/02/27 00:38:33;;;;;;;10.47;7.17;;;5.00;32.60;;;;;;10406268;28;20244;-76
2022/02/27 00:43:36;;;;;;;9.20;6.20;;;5.00;32.60;;;;;;10406292;28;20221;-76
2022/02/27 00:48:41;;;;;;;8.17;6.23;;;5.00;32.50;;;;;;10405967;28;20239;-76
2022/02/27 00:53:45;;;;;;;9.57;6.77;;;4.90;32.50;;;;;;10406219;28;20714;-75
2022/02/27 00:58:50;;;;;;;7.70;4.97;;;4.90;32.40;;;;;;10405677;28;20718;-75
2022/02/27 01:03:55;;;;;;;9.40;5.80;;;4.80;32.40;;;;;;10405731;28;20257;-75
2022/02/27 01:08:59;;;;;;;6.23;4.60;;;4.70;32.50;;;;;;10405743;28;20230;-74
2022/02/27 01:14:04;;;;;;;6.83;5.13;;;4.70;32.60;;;;;;10405302;28;20256;-76
2022/02/27 01:19:09;;;;;;;6.67;5.00;;;4.60;32.50;;;;;;10405860;28;20230;-76
2022/02/27 01:24:12;;;;;;;6.83;5.13;;;4.60;32.50;;;;;;10405545;28;20245;-76
2022/02/27 01:29:15;;;;;;;7.30;4.80;;;4.50;32.50;;;;;;10408779;28;20233;-75
2022/02/27 01:34:20;;;;;;;5.53;4.27;;;4.50;32.60;;;;;;10413234;28;20226;-76
2022/02/27 01:39:23;;;;;;;8.43;4.30;;;4.50;32.50;;;;;;10412347;28;20236;-75
2022/02/27 01:44:26;;;;;;;6.27;4.50;;;4.30;32.40;;;;;;10412608;28;20225;-75
2022/02/27 01:49:31;;;;;;;7.17;4.60;;;4.10;32.50;;;;;;10412204;28;20262;-75
2022/02/27 01:54:35;;;;;;;7.27;4.37;;;4.00;32.80;;;;;;10412280;28;20225;-76
2022/02/27 01:59:40;;;;;;;6.13;4.17;;;3.90;32.70;;;;;;10412073;28;20232;-76
2022/02/27 02:04:44;;;;;;;7.20;4.47;;;3.90;32.90;;;;;;10411766;28;20233;-76
2022/02/27 02:09:48;;;;;;;5.67;4.00;;;3.90;33.00;;;;;;10411448;28;20695;-76
2022/02/27 02:14:52;;;;;;;5.60;4.37;;;3.80;32.80;;;;;;10411233;28;20301;-74
2022/02/27 02:19:57;;;;;;;7.30;4.67;;;3.80;32.90;;;;;;10411167;28;20230;-76
2022/02/27 02:25:00;;;;;;;8.17;4.97;;;3.70;33.10;;;;;;10410905;28;20647;-75
2022/02/27 02:30:06;;;;;;;7.33;5.27;;;3.70;33.00;;;;;;10410717;28;20232;-76
2022/02/27 02:35:10;;;;;;;6.67;5.07;;;3.70;33.90;;;;;;10410707;28;20226;-76
2022/02/27 02:40:14;;;;;;;5.07;4.30;;;3.60;33.20;;;;;;10409665;28;20721;-75
2022/02/27 02:45:17;;;;;;;6.90;4.63;;;3.60;33.30;;;;;;10410365;28;20245;-74
2022/02/27 02:50:22;;;;;;;5.90;4.17;;;3.60;33.10;;;;;;10410546;28;20234;-75
2022/02/27 02:55:25;;;;;;;6.40;4.47;;;3.60;33.20;;;;;;10410189;28;20307;-75
2022/02/27 03:00:28;;;;;;;4.87;3.80;;;3.50;33.10;;;;;;10410170;28;20241;-76
2022/02/27 03:05:33;;;;;;;5.37;3.87;;;3.50;33.30;;;;;;10409584;28;20260;-75
2022/02/27 03:10:37;;;;;;;6.73;3.90;;;3.50;33.30;;;;;;10409434;28;20229;-75
2022/02/27 03:15:40;;;;;;;4.37;3.60;;;3.40;33.30;;;;;;10409417;28;20230;-75
2022/02/27 03:20:45;;;;;;;5.10;3.47;;;3.40;33.30;;;;;;10409379;28;20244;-76
2022/02/27 03:25:48;;;;;;;4.20;3.20;;;3.50;33.60;;;;;;10408699;28;20232;-75
2022/02/27 03:30:52;;;;;;;6.27;3.50;;;3.50;33.40;;;;;;10408380;28;20226;-76
2022/02/27 03:35:56;;;;;;;3.77;2.50;;;3.50;33.50;;;;;;10408303;28;20230;-75
2022/02/27 03:40:59;;;;;;;5.00;3.60;;;3.50;33.50;;;;;;10408233;28;20244;-76
2022/02/27 03:46:03;;;;;;;5.10;3.17;;;3.50;33.50;;;;;;10407910;28;20229;-74
2022/02/27 03:51:08;;;;;;;5.27;3.37;;;3.50;33.60;;;;;;10407884;28;20253;-75
2022/02/27 03:56:11;;;;;;;3.87;2.90;;;3.40;33.60;;;;;;10407722;28;20260;-76
2022/02/27 04:01:15;;;;;;;3.87;3.20;;;3.40;33.30;;;;;;10407631;28;20237;-75
2022/02/27 04:06:19;;;;;;;5.97;3.23;;;3.40;33.30;;;;;;10407121;28;20730;-75
2022/02/27 04:11:22;;;;;;;5.27;3.43;;;3.30;33.50;;;;;;10407277;28;20221;-75
2022/02/27 04:16:26;;;;;;;5.23;3.47;;;3.20;33.40;;;;;;10406976;28;20606;-74
2022/02/27 04:21:30;;;;;;;4.83;3.77;;;3.20;33.40;;;;;;10407102;28;20245;-75
2022/02/27 04:26:33;;;;;;;4.73;3.40;;;3.20;33.70;;;;;;10406548;28;20234;-75
2022/02/27 04:31:37;;;;;;;4.13;2.77;;;3.10;33.50;;;;;;10406987;28;20655;-75
2022/02/27 04:36:41;;;;;;;5.60;3.27;;;3.10;34.30;;;;;;10406407;28;20236;-75
2022/02/27 04:41:44;;;;;;;5.43;3.70;;;3.20;33.60;;;;;;10406438;28;20230;-74
2022/02/27 04:46:48;;;;;;;6.30;3.63;;;3.20;33.60;;;;;;10406308;28;20232;-75
2022/02/27 04:51:52;;;;;;;6.13;3.40;;;3.00;33.50;;;;;;10406526;28;20217;-74
2022/02/27 04:56:56;;;;;;;6.63;3.43;;;3.10;33.60;;;;;;10405913;28;20228;-75
2022/02/27 05:01:59;;;;;;;3.90;3.00;;;3.00;33.50;;;;;;10406239;28;20221;-75
2022/02/27 05:07:04;;;;;;;5.23;3.80;;;3.00;33.60;;;;;;10413896;28;20230;-75
2022/02/27 05:12:08;;;;;;;6.03;3.87;;;2.90;33.60;;;;;;10414012;28;20244;-73
2022/02/27 05:17:11;;;;;;;4.80;3.33;;;2.90;33.60;;;;;;10413657;28;20233;-75
2022/02/27 05:22:18;;;;;;;6.23;3.60;;;3.00;33.60;;;;;;10413536;28;20238;-74
2022/02/27 05:27:21;;;;;;;4.50;3.60;;;2.90;33.60;;;;;;10413413;28;20237;-75
2022/02/27 05:32:24;;;;;;;3.90;3.37;;;2.80;33.60;;;;;;10413358;28;20228;-75
2022/02/27 05:37:29;;;;;;;5.13;3.20;;;2.80;33.80;;;;;;10412995;28;20226;-75
2022/02/27 05:42:32;;;;;;;5.63;3.90;;;2.80;33.80;;;;;;10412964;28;20252;-75
2022/02/27 05:47:35;;;;;;;4.97;3.73;;;2.80;33.60;;;;;;10412380;28;20280;-75
2022/02/27 05:52:39;;;;;;;6.77;4.40;;;2.80;33.60;;;;;;10412601;28;20268;-75
2022/02/27 05:57:43;;;;;;;4.27;3.87;;;2.90;33.80;;;;;;10412064;28;20239;-74
2022/02/27 06:02:46;;;;;;;3.60;3.20;;;2.70;33.50;;;;;;10411921;28;20225;-74
2022/02/27 06:07:51;;;;;;;4.17;3.63;;;2.70;33.50;;;;;;10411501;28;20234;-75
2022/02/27 06:12:54;;;;;;;4.83;4.03;;;2.70;33.70;;;;;;10411695;28;20222;-75
2022/02/27 06:17:57;;;;;;;5.13;3.77;;;2.60;33.60;;;;;;10409943;28;20763;-74
2022/02/27 06:23:01;;;;;;;4.73;3.50;;;2.60;33.60;;;;;;10411145;28;20225;-75
2022/02/27 06:28:05;;;;;;;5.63;3.67;;;2.60;33.80;;;;;;10410561;28;20239;-75
2022/02/27 06:33:08;;;;;;;5.23;3.87;;;2.60;33.70;;;;;;10411014;28;20240;-74
2022/02/27 06:38:12;;;;;;;5.07;3.53;;;2.50;33.70;;;;;;10410362;28;20264;-75
2022/02/27 06:43:16;;;;;;;6.63;4.10;;;2.50;33.90;;;;;;10410157;28;20907;-75
2022/02/27 06:48:19;;;;;;;5.17;4.17;;;2.50;33.90;;;;;;10409965;28;20233;-74
2022/02/27 06:53:23;;;;;;;5.43;4.20;;;2.40;34.80;;;;;;10409689;28;20229;-74
2022/02/27 06:58:27;;;;;;;6.20;4.37;;;2.40;34.60;;;;;;10409574;28;20226;-73
2022/02/27 07:03:30;;;;;;;6.53;4.23;;;2.50;34.70;;;;;;10409391;28;20236;-75
2022/02/27 07:08:35;;;;;;;6.27;4.73;;;2.50;34.60;;;;;;10409371;28;20272;-75
2022/02/27 07:13:38;;;;;;;6.47;5.10;;;2.40;34.60;;;;;;10409426;28;20221;-74
2022/02/27 07:18:41;;;;;;;5.57;5.07;;;2.40;34.60;;;;;;10408655;28;20229;-73
2022/02/27 07:23:46;;;;;;;5.20;4.43;;;2.40;34.60;;;;;;10408663;28;20236;-74
2022/02/27 07:28:49;;;;;;;6.33;5.20;;;2.40;34.70;;;;;;10408114;28;20229;-73
2022/02/27 07:33:54;;;;;;;8.07;4.60;;;2.40;34.80;;;;;;10408327;28;20305;-74
2022/02/27 07:38:59;;;;;;;7.27;5.07;;;2.60;35.40;;;;;;10407652;28;20229;-73
2022/02/27 07:44:02;;;;;;;6.80;4.87;;;2.50;35.80;;;;;;10408081;28;20232;-74
2022/02/27 07:49:07;;;;;;;7.27;5.10;;;2.70;35.90;;;;;;10408138;28;20313;-74
2022/02/27 07:54:12;;;;;;;8.67;5.67;;;2.90;36.10;;;;;;10408386;28;20227;-73
2022/02/27 07:59:15;;;;;;;8.20;5.10;;;3.00;36.40;;;;;;10407652;28;20240;-73
2022/02/27 08:04:18;;;;;;;6.70;4.90;;;3.10;36.50;;;;;;10407894;28;20260;-74
2022/02/27 08:09:23;;;;;;;7.17;5.73;;;3.30;36.60;;;;;;10407720;28;20265;-75
2022/02/27 08:14:26;;;;;;;7.60;5.20;;;3.40;37.30;;;;;;10408665;28;20245;-74
2022/02/27 08:19:30;;;;;;;4.93;4.27;;;3.60;37.50;;;;;;10406130;28;20236;-74
2022/02/27 08:24:34;;;;;;;6.50;4.93;;;3.80;37.60;;;;;;10404385;28;20259;-74
2022/02/27 08:29:37;;;;;;;5.13;4.23;;;4.00;37.90;;;;;;10403256;28;20775;-73
2022/02/27 08:34:41;;;;;;;7.03;4.57;;;4.20;37.60;;;;;;10407658;28;20232;-74
2022/02/27 08:39:45;;;;;;;6.23;4.47;;;4.40;37.50;;;;;;10407155;28;20226;-74
2022/02/27 08:44:49;;;;;;;5.83;4.60;;;4.50;37.40;;;;;;10408497;28;20222;-74
2022/02/27 08:49:52;;;;;;;6.60;5.33;;;4.70;37.20;;;;;;10408611;28;20240;-73
2022/02/27 08:54:57;;;;;;;5.80;4.50;;;4.80;37.10;;;;;;10407848;28;20244;-74
2022/02/27 09:00:00;;;;;;;6.60;4.80;;;4.90;37.30;;;;;;10408014;28;20596;-74
2022/02/27 09:05:05;;;;;;;5.63;4.77;;;5.10;36.90;;;;;;10406867;28;20228;-74
2022/02/27 09:10:13;;;;;;;6.30;4.67;;;5.30;37.10;;;;;;10426182;28;20365;-74
2022/02/27 09:15:16;;;;;;;5.67;4.57;;;5.50;37.70;;;;;;10488768;28;20328;-74
2022/02/27 09:20:20;;;;;;;4.50;4.10;;;5.80;37.50;;;;;;10489061;28;20232;-75
2022/02/27 09:25:26;;;;;;;5.23;4.20;;;6.10;37.60;;;;;;10475261;28;20310;-75
2022/02/27 09:30:49;;;;;;;6.07;4.50;;;6.50;36.90;;;;;;10445047;28;20217;-74
2022/02/27 09:35:53;;;;;;;6.20;4.77;;;6.80;36.00;;;;;;10446740;28;20245;-75
2022/02/27 09:40:59;;;;;;;5.80;4.20;;;7.00;35.60;;;;;;10446428;28;20225;-75
2022/02/27 09:46:03;;;;;;;4.60;4.20;;;7.20;34.70;;;;;;10445473;28;20228;-75
2022/02/27 09:51:06;;;;;;;4.37;3.97;;;7.40;35.30;;;;;;10449238;28;20228;-73
2022/02/27 09:56:11;;;;;;;5.10;3.80;;;7.60;35.10;;;;;;10453986;28;20237;-75
2022/02/27 10:01:16;;;;;;;3.80;3.40;;;7.80;34.40;;;;;;10453983;28;20231;-75
2022/02/27 10:06:20;;;;;;;4.07;3.47;;;8.10;34.30;;;;;;10453901;28;20253;-75
2022/02/27 10:11:25;;;;;;;4.33;3.53;;;8.20;33.50;;;;;;10453849;28;20229;-75
2022/02/27 10:16:29;;;;;;;3.90;3.47;;;8.40;33.50;;;;;;10453607;28;20311;-76
2022/02/27 10:21:34;;;;;;;4.37;3.30;;;8.60;33.30;;;;;;10453391;28;20335;-75
2022/02/27 10:26:57;;;;;;;3.53;3.23;;;8.80;33.30;;;;;;10453396;28;20291;-75
2022/02/27 10:32:04;;;;;;;3.60;2.90;;;9.00;32.70;;;;;;10486287;28;20226;-75
2022/02/27 10:37:09;;;;;;;3.47;3.17;;;9.10;31.90;;;;;;10493209;28;20898;-75
2022/02/27 10:42:16;;;;;;;4.27;3.20;;;9.20;31.60;;;;;;10458484;28;20233;-75
2022/02/27 10:47:21;;;;;;;3.70;3.33;;;9.30;30.30;;;;;;10450544;28;20251;-75
2022/02/27 10:52:26;;;;;;;3.87;3.10;;;9.40;31.10;;;;;;10450693;28;20225;-75
2022/02/27 10:57:34;;;;;;;3.63;3.33;;;9.40;31.10;;;;;;10451772;28;20625;-75
2022/02/27 11:02:38;;;;;;;4.43;3.80;;;9.50;30.30;;;;;;10450913;28;20239;-75
2022/02/27 11:07:43;;;;;;;3.87;3.53;;;9.60;30.30;;;;;;10451471;28;20795;-76
2022/02/27 11:12:49;;;;;;;4.13;3.73;;;9.70;30.20;;;;;;10451899;28;20225;-76
2022/02/27 11:17:52;;;;;;;4.53;4.13;;;9.70;29.80;;;;;;10451319;28;20260;-76
2022/02/27 11:22:58;;;;;;;5.07;4.57;;;9.80;30.40;;;;;;10451105;28;20701;-75
2022/02/27 11:28:06;;;;;;;4.30;3.90;;;9.90;29.00;;;;;;10450378;28;20239;-75
2022/02/27 11:33:13;;;;;;;5.13;4.63;;;9.90;29.80;;;;;;10450574;28;20250;-76
2022/02/27 11:38:19;;;;;;;5.17;4.43;;;10.00;28.30;;;;;;10450106;28;20264;-76
2022/02/27 11:48:59;;;;;;;4.70;4.30;;;10.00;28.80;;;;;;10438933;27;20564;-71
2022/02/27 11:54:07;;;;;;;5.93;4.70;;;10.10;28.40;;;;;;10460533;28;20225;-71
2022/02/27 12:04:29;;;;;;;5.77;5.27;;;10.10;28.80;;;;;;7934786;22;20224;-74
2022/02/27 12:09:58;;;;;;;5.77;5.17;;;10.10;28.90;;;;;;10482791;22;20722;-76
2022/02/27 12:15:20;;;;;;;5.97;5.37;;;10.10;27.40;;;;;;10443267;28;20225;-75
2022/02/27 12:20:53;;;;;;;6.10;5.50;;;10.00;27.20;;;;;;10436851;28;20225;-75
2022/02/27 12:26:01;;;;;;;5.60;5.10;;;10.00;28.20;;;;;;10376036;28;20237;-76
2022/02/27 12:31:05;;;;;;;5.70;5.20;;;10.00;28.30;;;;;;10440862;28;20221;-76
2022/02/27 12:36:10;;;;;;;6.30;5.70;;;9.90;29.00;;;;;;10429645;28;20238;-76
2022/02/27 12:41:18;;;;;;;6.03;5.43;;;9.90;28.10;;;;;;10441165;28;20225;-76
2022/02/27 12:46:22;;;;;;;5.57;5.03;;;9.90;27.80;;;;;;10415914;28;20239;-76
2022/02/27 12:51:27;;;;;;;6.03;5.40;;;9.90;28.30;;;;;;10441096;28;20225;-76
2022/02/27 12:56:31;;;;;;;6.77;6.10;;;9.80;28.10;;;;;;10425699;28;20253;-76
2022/02/27 13:01:36;;;;;;;5.67;5.07;;;9.80;28.90;;;;;;10386068;28;20337;-76
2022/02/27 13:06:41;;;;;;;5.93;5.43;;;9.90;29.00;;;;;;10395844;28;20233;-76
2022/02/27 13:11:46;;;;;;;6.50;5.60;;;9.90;29.00;;;;;;10393037;28;20576;-77
2022/02/27 13:16:51;;;;;;;5.87;5.30;;;9.80;28.00;;;;;;10378386;28;20240;-77
2022/02/27 13:21:56;;;;;;;6.40;5.40;;;9.80;28.30;;;;;;10378541;28;20326;-77
2022/02/27 13:27:02;;;;;;;5.73;5.13;;;9.90;28.20;;;;;;10387451;28;20230;-77
2022/02/27 13:32:07;;;;;;;5.77;5.27;;;9.90;28.60;;;;;;10404602;28;20245;-77
2022/02/27 13:37:14;;;;;;;6.10;5.47;;;10.00;27.50;;;;;;10408360;28;20890;-77
2022/02/27 13:42:21;;;;;;;7.00;5.17;;;10.10;27.30;;;;;;10412448;28;20221;-77
2022/02/27 13:47:26;;;;;;;5.90;5.40;;;10.10;27.00;;;;;;10411392;28;20221;-77
2022/02/27 13:52:36;;;;;;;5.30;4.90;;;10.10;27.50;;;;;;10400209;28;20230;-76
2022/02/27 13:57:40;;;;;;;5.43;4.97;;;10.10;26.50;;;;;;10383358;28;20226;-76
2022/02/27 14:02:53;;;;;;;5.23;4.70;;;10.10;27.70;;;;;;10389620;28;20252;-75
2022/02/27 14:07:58;;;;;;;5.60;5.10;;;10.10;28.40;;;;;;10380096;28;20316;-76
2022/02/27 14:13:05;;;;;;;5.00;4.50;;;10.20;27.70;;;;;;10386033;28;20300;-76
2022/02/27 14:18:23;;;;;;;5.53;5.03;;;10.20;27.30;;;;;;10388843;28;20226;-76
2022/02/27 14:23:30;;;;;;;5.13;4.73;;;10.10;26.30;;;;;;10387136;28;20255;-76
2022/02/27 14:28:49;;;;;;;5.00;4.50;;;10.20;27.10;;;;;;10397961;28;20225;-76
2022/02/27 14:33:52;;;;;;;5.70;4.67;;;10.10;26.30;;;;;;10382385;28;20226;-76
2022/02/27 14:38:57;;;;;;;6.53;5.07;;;10.20;27.10;;;;;;10386656;28;20577;-75
2022/02/27 14:44:01;;;;;;;4.87;4.47;;;10.10;26.60;;;;;;10380122;28;20241;-75
2022/02/27 14:49:05;;;;;;;4.57;4.17;;;10.20;26.90;;;;;;10382055;28;20699;-74
2022/02/27 14:54:09;;;;;;;5.13;4.63;;;10.20;28.40;;;;;;10387327;28;20222;-75
2022/02/27 14:59:12;;;;;;;4.70;4.20;;;10.20;27.10;;;;;;10384691;28;20237;-75
2022/02/27 15:04:16;;;;;;;4.90;4.17;;;10.20;27.30;;;;;;10383639;28;20225;-75
2022/02/27 15:09:21;;;;;;;5.23;4.73;;;10.30;27.20;;;;;;10381249;28;20699;-75
2022/02/27 15:14:24;;;;;;;5.77;5.20;;;10.30;26.30;;;;;;10380578;28;20230;-75
2022/02/27 15:19:28;;;;;;;5.07;4.57;;;10.20;26.60;;;;;;10386299;28;20225;-75
2022/02/27 15:24:32;;;;;;;6.00;5.40;;;10.20;26.60;;;;;;10382804;28;20230;-75
2022/02/27 15:29:37;;;;;;;5.67;4.90;;;10.10;26.40;;;;;;10379669;28;20234;-75
2022/02/27 15:34:43;;;;;;;5.73;5.00;;;10.10;26.80;;;;;;10384169;28;20232;-75
2022/02/27 15:39:48;;;;;;;5.20;4.70;;;10.10;26.60;;;;;;10386773;28;20239;-75
2022/02/27 15:44:51;;;;;;;5.13;4.63;;;10.10;26.70;;;;;;10381155;28;20241;-75
2022/02/27 15:49:55;;;;;;;5.90;5.20;;;10.00;26.60;;;;;;10386822;28;20225;-75
2022/02/27 15:55:00;;;;;;;5.37;4.87;;;10.00;26.10;;;;;;10382928;28;20218;-74
2022/02/27 16:00:05;;;;;;;5.33;4.83;;;9.90;26.60;;;;;;10383777;28;20237;-74
2022/02/27 16:05:11;;;;;;;5.13;4.63;;;9.80;27.00;;;;;;10381522;28;20234;-75
2022/02/27 16:10:16;;;;;;;4.73;4.27;;;9.70;27.20;;;;;;10391023;28;20316;-78
2022/02/27 16:15:19;;;;;;;5.20;4.37;;;9.60;26.90;;;;;;10387010;28;20234;-78
2022/02/27 16:20:23;;;;;;;5.23;4.67;;;9.60;27.40;;;;;;10383583;28;20637;-75
2022/02/27 16:25:27;;;;;;;7.53;6.73;;;9.50;27.50;;;;;;10380257;28;20337;-76
2022/02/27 16:30:31;;;;;;;5.47;4.97;;;9.50;27.40;;;;;;10376488;28;20239;-75
2022/02/27 16:35:35;;;;;;;5.13;4.63;;;9.60;27.20;;;;;;10391807;28;20233;-75
2022/02/27 16:40:39;;;;;;;5.83;4.93;;;9.50;27.20;;;;;;10393420;28;20221;-76
2022/02/27 16:45:43;;;;;;;7.17;6.47;;;9.40;26.80;;;;;;10386319;28;20231;-75
2022/02/27 16:50:47;;;;;;;7.30;6.27;;;9.40;27.00;;;;;;10403597;28;20220;-76
2022/02/27 16:55:51;;;;;;;6.97;5.17;;;9.30;27.20;;;;;;10378105;28;20230;-78
2022/02/27 17:00:56;;;;;;;5.30;4.90;;;9.30;27.10;;;;;;10373484;28;20225;-77
2022/02/27 17:06:03;;;;;;;6.67;5.57;;;9.20;27.10;;;;;;10372946;28;20223;-77
2022/02/27 17:11:07;;;;;;;5.30;4.63;;;9.20;27.30;;;;;;10373312;28;20261;-77
2022/02/27 17:16:12;;;;;;;5.50;5.00;;;9.20;27.20;;;;;;10373460;28;20237;-77
2022/02/27 17:21:17;;;;;;;5.60;5.00;;;9.20;27.20;;;;;;10372336;28;20261;-77
2022/02/27 17:26:22;;;;;;;5.17;4.77;;;9.10;26.70;;;;;;10384821;28;20233;-75
2022/02/27 17:31:25;;;;;;;7.10;5.40;;;9.00;27.20;;;;;;10410607;28;20233;-75
2022/02/27 17:36:28;;;;;;;6.13;5.50;;;8.90;27.30;;;;;;10410668;28;20600;-77
2022/02/27 17:41:34;;;;;;;5.63;4.77;;;8.90;27.50;;;;;;10410791;28;20225;-74
2022/02/27 17:46:37;;;;;;;5.37;4.83;;;8.90;27.20;;;;;;10410049;28;20234;-74
2022/02/27 17:51:42;;;;;;;4.03;3.63;;;8.80;27.30;;;;;;10410240;28;20249;-74
2022/02/27 17:56:47;;;;;;;5.00;4.43;;;8.80;27.40;;;;;;10409705;28;20256;-74
2022/02/27 18:01:51;;;;;;;6.30;4.87;;;8.70;27.40;;;;;;10409579;28;20229;-74
2022/02/27 18:06:54;;;;;;;6.30;4.47;;;8.70;27.50;;;;;;10409048;28;20601;-74
2022/02/27 18:11:59;;;;;;;4.53;4.13;;;8.60;27.50;;;;;;10409124;28;20252;-74
2022/02/27 18:17:02;;;;;;;3.63;3.10;;;8.60;27.40;;;;;;10409067;28;20232;-74
2022/02/27 18:22:05;;;;;;;7.33;4.90;;;8.40;27.50;;;;;;10408685;28;20229;-74
2022/02/27 18:27:10;;;;;;;5.53;4.90;;;8.30;27.50;;;;;;10374225;28;20741;-73
2022/02/27 18:32:13;;;;;;;4.23;3.87;;;8.20;27.50;;;;;;10393904;28;20320;-74
2022/02/27 18:37:16;;;;;;;4.67;3.70;;;8.10;27.80;;;;;;10400683;28;20229;-74
2022/02/27 18:42:21;;;;;;;5.03;4.00;;;7.90;27.70;;;;;;10401715;28;20713;-74
2022/02/27 18:47:24;;;;;;;5.40;4.90;;;7.80;27.60;;;;;;10379770;28;20237;-74
2022/02/27 18:52:27;;;;;;;5.03;4.63;;;7.70;27.60;;;;;;10366753;28;20232;-74
2022/02/27 18:57:34;;;;;;;5.10;4.30;;;7.60;27.50;;;;;;10366069;28;20233;-74
2022/02/27 19:02:37;;;;;;;4.53;4.13;;;7.50;27.50;;;;;;10366693;28;20229;-74
2022/02/27 19:07:42;;;;;;;4.67;4.27;;;7.40;27.40;;;;;;10366204;28;20235;-74
2022/02/27 19:12:47;;;;;;;5.50;5.00;;;7.30;27.40;;;;;;10374452;28;20258;-74
2022/02/27 19:17:52;;;;;;;5.83;5.33;;;7.20;27.90;;;;;;10400276;28;20233;-74
2022/02/27 19:22:55;;;;;;;5.57;4.97;;;7.10;27.60;;;;;;10399300;28;20225;-75
2022/02/27 19:28:00;;;;;;;5.07;4.07;;;7.10;27.80;;;;;;10365797;28;20244;-75
2022/02/27 19:33:04;;;;;;;5.10;4.60;;;7.10;27.90;;;;;;10369836;28;20697;-75
2022/02/27 19:38:07;;;;;;;4.80;4.40;;;7.00;27.90;;;;;;10393971;28;20244;-75
2022/02/27 19:43:11;;;;;;;5.53;5.03;;;6.90;27.90;;;;;;10398997;28;20713;-75
2022/02/27 19:48:15;;;;;;;6.67;6.00;;;6.90;27.90;;;;;;10367596;28;20752;-75
2022/02/27 19:53:18;;;;;;;6.07;5.47;;;6.90;27.90;;;;;;10393300;28;20595;-76
2022/02/27 19:58:22;;;;;;;7.10;5.87;;;6.80;27.80;;;;;;10398782;28;20575;-75
2022/02/27 20:03:26;;;;;;;6.07;5.47;;;6.80;28.00;;;;;;10377186;28;20221;-76
2022/02/27 20:08:29;;;;;;;5.33;4.83;;;6.70;28.00;;;;;;10402950;28;20233;-75
2022/02/27 20:13:36;;;;;;;7.27;5.00;;;6.60;28.00;;;;;;10380910;28;20233;-75
2022/02/27 20:18:40;;;;;;;6.13;5.10;;;6.50;28.00;;;;;;10375374;28;20253;-76
2022/02/27 20:23:43;;;;;;;5.27;4.77;;;6.50;27.90;;;;;;10379473;28;20283;-75
2022/02/27 20:28:48;;;;;;;7.30;5.57;;;6.40;27.90;;;;;;10396562;28;20632;-75
2022/02/27 20:33:51;;;;;;;8.37;6.60;;;6.30;27.80;;;;;;10405927;28;20229;-75
2022/02/27 20:38:55;;;;;;;11.70;9.30;;;6.10;28.00;;;;;;10405304;28;20310;-75
2022/02/27 20:44:00;;;;;;;23.90;17.30;;;5.90;28.10;;;;;;10406072;28;20226;-76
2022/02/27 20:49:05;;;;;;;22.67;15.57;;;5.90;28.30;;;;;;10404373;28;20319;-76
2022/02/27 20:54:11;;;;;;;18.30;14.23;;;5.80;28.30;;;;;;10364001;28;20226;-76
2022/02/27 20:59:15;;;;;;;16.97;12.53;;;5.70;28.20;;;;;;10386828;28;20325;-74
2022/02/27 21:04:19;;;;;;;15.67;11.43;;;5.60;28.20;;;;;;10405622;28;20902;-75
2022/02/27 21:09:22;;;;;;;12.57;9.93;;;5.50;28.20;;;;;;10404001;28;20238;-75
2022/02/27 21:14:27;;;;;;;17.03;12.67;;;5.50;28.40;;;;;;10404201;28;20690;-75
2022/02/27 21:19:31;;;;;;;19.10;13.73;;;5.40;28.90;;;;;;10396669;28;20229;-75
2022/02/27 21:24:34;;;;;;;20.37;14.53;;;5.30;28.30;;;;;;10367847;28;20592;-75
2022/02/27 21:29:39;;;;;;;20.77;13.70;;;5.20;28.40;;;;;;10362657;28;20802;-73
2022/02/27 21:34:42;;;;;;;21.90;14.40;;;5.10;28.60;;;;;;10363186;28;20222;-75
2022/02/27 21:39:46;;;;;;;16.60;12.33;;;5.00;28.50;;;;;;10361782;28;20227;-75
2022/02/27 21:44:51;;;;;;;16.43;12.47;;;5.00;28.60;;;;;;10362173;28;20226;-75
2022/02/27 21:49:54;;;;;;;14.57;11.47;;;5.00;28.50;;;;;;10361819;28;20825;-76
2022/02/27 21:54:57;;;;;;;13.33;10.40;;;4.90;28.50;;;;;;10395417;28;20231;-75
2022/02/27 22:00:03;;;;;;;9.97;8.37;;;4.80;28.50;;;;;;10406663;28;20239;-75
2022/02/27 22:05:07;;;;;;;9.80;8.23;;;4.80;28.60;;;;;;10407010;28;20284;-75
2022/02/27 22:10:11;;;;;;;6.40;5.80;;;4.70;28.50;;;;;;10405723;28;20255;-75
2022/02/27 22:15:16;;;;;;;9.70;8.10;;;4.70;28.50;;;;;;10395733;28;20230;-75
2022/02/27 22:20:22;;;;;;;10.77;7.97;;;4.60;28.50;;;;;;10368047;28;20256;-74
2022/02/27 22:25:25;;;;;;;11.60;8.37;;;4.50;28.50;;;;;;10401706;28;20229;-75
2022/02/27 22:30:30;;;;;;;9.77;7.33;;;4.40;28.60;;;;;;10393474;28;20783;-75
2022/02/27 22:35:35;;;;;;;8.63;7.40;;;4.50;28.90;;;;;;10386195;28;20325;-75
2022/02/27 22:40:39;;;;;;;8.57;7.43;;;4.30;28.80;;;;;;10400088;28;20231;-74
2022/02/27 22:45:43;;;;;;;8.63;7.17;;;4.30;28.80;;;;;;10378792;28;20222;-75
2022/02/27 22:50:47;;;;;;;6.23;5.63;;;4.30;28.90;;;;;;10374581;28;20257;-74
2022/02/27 22:55:50;;;;;;;8.40;6.20;;;4.20;28.70;;;;;;10371569;28;20657;-75
2022/02/27 23:00:58;;;;;;;6.20;5.33;;;4.20;28.80;;;;;;10388826;28;20248;-75
2022/02/27 23:06:01;;;;;;;7.60;5.43;;;4.20;28.70;;;;;;10383039;28;20710;-75
2022/02/27 23:11:07;;;;;;;6.63;5.73;;;4.10;28.70;;;;;;10399360;28;20226;-75
2022/02/27 23:16:12;;;;;;;7.00;6.30;;;4.10;28.80;;;;;;10376806;28;20242;-75
2022/02/27 23:21:15;;;;;;;6.30;5.70;;;4.00;28.90;;;;;;10382509;28;20264;-74
2022/02/27 23:26:21;;;;;;;7.47;6.03;;;3.90;28.90;;;;;;10382181;28;20226;-75
2022/02/27 23:31:26;;;;;;;5.50;4.97;;;3.90;29.00;;;;;;10384008;28;20237;-75
2022/02/27 23:36:30;;;;;;;8.23;5.80;;;3.90;29.00;;;;;;10406036;28;20300;-75
2022/02/27 23:41:33;;;;;;;6.83;5.73;;;3.80;29.00;;;;;;10390109;28;20253;-75
2022/02/27 23:46:37;;;;;;;4.90;4.47;;;3.90;29.10;;;;;;10393757;28;20321;-74
2022/02/27 23:51:41;;;;;;;7.13;5.97;;;3.70;29.00;;;;;;10389358;28;20571;-75
2022/02/27 23:56:44;;;;;;;6.87;5.53;;;3.80;29.10;;;;;;10367318;28;20238;-74
